Flight Track Log - Related Links

Times and Time Zones

All times are in EDT time to prevent confusion due to time zone crossing. See the CSN6815 flight status page for this flight to view local times or setup timezone preferences in your user account.

Time Position Orientation Groundspeed Altitude Reporting Facility
EDT Latitude Longitude Course Direction KTS MPH feet Rate Location/Type
Thu 08:17:00 AM 43.3799 86.8084 223° Southwest  Level Estimated
Thu 08:18:00 AM 43.3043 86.7142 222° Southwest  Level Estimated
Thu 08:19:00 AM 43.2286 86.6203 222° Southwest  Level Estimated
Thu 08:20:00 AM 43.1528 86.5266 222° Southwest  Level Estimated
Thu 08:21:00 AM 43.0770 86.4331 222° Southwest  Level Estimated
Thu 08:22:00 AM 43.0011 86.3399 222° Southwest  Level Estimated
Thu 08:23:00 AM 42.9251 86.2469 222° Southwest  Level Estimated
Thu 08:24:00 AM 42.8490 86.1541 222° Southwest  Level Estimated
Thu 08:25:00 AM 42.7728 86.0616 222° Southwest  Level Estimated
Thu 08:26:00 AM 42.6966 85.9692 222° Southwest  Level Estimated
Thu 08:27:00 AM 42.6203 85.8771 222° Southwest  Level Estimated
Thu 08:28:00 AM 42.5439 85.7853 222° Southwest  Level Estimated
Thu 08:29:00 AM 42.4675 85.6936 222° Southwest  Level Estimated
Thu 08:30:00 AM 42.3909 85.6022 221° Southwest  Level Estimated
Thu 08:31:00 AM 42.3144 85.5110 221° Southwest  Level Estimated
Thu 08:32:00 AM 42.2377 85.4200 221° Southwest  Level Estimated
Thu 08:33:00 AM 42.1609 85.3293 221° Southwest  Level Estimated
Thu 08:34:00 AM 42.0841 85.2387 221° Southwest  Level Estimated
Thu 08:35:00 AM 42.0073 85.1484 221° Southwest  Level Estimated
Thu 08:36:00 AM 41.9303 85.0583 221° Southwest  Level Estimated
Thu 08:37:00 AM 41.8533 84.9684 221° Southwest  Level Estimated
Thu 08:38:00 AM 41.7762 84.8788 221° Southwest  Level Estimated
Thu 08:39:00 AM 41.6990 84.7893 221° Southwest  Level Estimated
Thu 08:40:00 AM 41.6218 84.7001 221° Southwest  Level Estimated
Thu 08:41:00 AM 41.5445 84.6111 221° Southwest  Level Estimated
Thu 08:42:00 AM 41.4672 84.5222 221° Southwest  Level Estimated
Thu 08:43:00 AM 41.3897 84.4336 221° Southwest  Level Estimated
Thu 08:44:00 AM 41.3122 84.3453 221° Southwest  Level Estimated
Thu 08:45:00 AM 41.2346 84.2571 221° Southwest  Level Estimated
Thu 08:46:00 AM 41.1570 84.1691 220° Southwest  Level Estimated
Thu 08:47:00 AM 41.0793 84.0813 220° Southwest  Level Estimated
Thu 08:48:00 AM 41.0015 83.9938 220° Southwest  Level Estimated
Thu 08:49:00 AM 40.9237 83.9064 220° Southwest  Level Estimated
Thu 08:50:00 AM 40.8458 83.8193 220° Southwest  Level Estimated
Thu 08:51:00 AM 40.7678 83.7324 220° Southwest  Level Estimated
Thu 08:52:00 AM 40.6898 83.6456 220° Southwest  Level Estimated
Thu 08:53:00 AM 40.6117 83.5591 220° Southwest  Level Estimated
Thu 08:54:00 AM 40.5335 83.4728 220° Southwest  Level Estimated
Thu 08:55:00 AM 40.4553 83.3866 220° Southwest  Level Estimated
Thu 08:56:00 AM 40.3770 83.3007 220° Southwest  Level Estimated
Thu 08:57:00 AM 40.2987 83.2150 220° Southwest  Level Estimated
Thu 08:58:00 AM 40.2202 83.1295 220° Southwest  Level Estimated
Thu 08:59:00 AM 40.1418 83.0441 220° Southwest  Level Estimated
Thu 09:00:00 AM 40.0632 82.9590 220° Southwest  Level Estimated
Thu 09:01:00 AM 39.9846 82.8741 220° Southwest  Level Estimated
Thu 09:02:00 AM 39.9059 82.7893 220° Southwest  Level Estimated
Thu 09:03:00 AM 39.8272 82.7048 220° Southwest  Level Estimated
Thu 09:04:00 AM 39.7484 82.6204 219° Southwest  Level Estimated
Thu 09:05:00 AM 39.6696 82.5363 219° Southwest  Level Estimated
Thu 09:06:00 AM 39.5907 82.4523 219° Southwest  Level Estimated
Thu 09:07:00 AM 39.5117 82.3685 219° Southwest  Level Estimated
Thu 09:08:00 AM 39.4327 82.2849 219° Southwest  Level Estimated
Thu 09:09:00 AM 39.3536 82.2015 219° Southwest  Level Estimated
Thu 09:10:00 AM 39.2744 82.1183 219° Southwest  Level Estimated
Thu 09:11:00 AM 39.1952 82.0353 219° Southwest  Level Estimated
Thu 09:12:00 AM 39.1160 81.9525 219° Southwest  Level Estimated
Thu 09:13:00 AM 39.0366 81.8698 219° Southwest  Level Estimated
Thu 09:14:00 AM 38.9572 81.7874 219° Southwest  Level Estimated
Thu 09:15:00 AM 38.8778 81.7051 219° Southwest  Level Estimated
Thu 09:16:00 AM 38.7983 81.6230 219° Southwest  Level Estimated
Thu 09:17:00 AM 38.7188 81.5411 219° Southwest  Level Estimated
Thu 09:18:00 AM 38.6391 81.4593 219° Southwest  Level Estimated
Thu 09:19:00 AM 38.5595 81.3778 219° Southwest  Level Estimated
Thu 09:20:00 AM 38.4797 81.2964 219° Southwest  Level Estimated
Thu 09:21:00 AM 38.3999 81.2152 219° Southwest  Level Estimated
Thu 09:22:00 AM 38.3201 81.1342 219° Southwest  Level Estimated
Thu 09:23:00 AM 38.2402 81.0534 218° Southwest  Level Estimated
Thu 09:24:00 AM 38.1603 80.9727 218° Southwest  Level Estimated
Thu 09:25:00 AM 38.0803 80.8923 218° Southwest  Level Estimated
Thu 09:26:00 AM 38.0002 80.8120 218° Southwest  Level Estimated
Thu 09:27:00 AM 37.9201 80.7318 218° Southwest  Level Estimated
Thu 09:28:00 AM 37.8399 80.6519 218° Southwest  Level Estimated
Thu 09:29:00 AM 37.7597 80.5721 218° Southwest  Level Estimated
Thu 09:30:00 AM 37.6794 80.4925 218° Southwest  Level Estimated
Thu 09:31:00 AM 37.5991 80.4131 218° Southwest  Level Estimated
Thu 09:32:00 AM 37.5187 80.3338 218° Southwest  Level Estimated
Thu 09:33:00 AM 37.4383 80.2547 218° Southwest  Level Estimated
Thu 09:34:00 AM 37.3578 80.1758 218° Southwest  Level Estimated
Thu 09:35:00 AM 37.2772 80.0971 218° Southwest  Level Estimated
Thu 09:36:00 AM 37.1967 80.0185 218° Southwest  Level Estimated
Thu 09:37:00 AM 37.1160 79.9401 218° Southwest  Level Estimated
Thu 09:38:00 AM 37.0385 79.8649 218° Southwest  Level Estimated
Thu 09:39:00 AM 37.0385 79.8649 North  Level Estimated
Thu 09:40:00 AM 37.0385 79.8649 North  Level Estimated
Thu 09:41:00 AM 37.0385 79.8649 North  Level Estimated
Thu 09:42:00 AM 37.0385 79.8649 North  Level Estimated
Thu 09:43:00 AM 37.0385 79.8649 North  Level Estimated
Thu 09:44:00 AM 37.0385 79.8649 North  Level Estimated
Thu 09:45:00 AM 37.0385 79.8649 North  Level Estimated
Thu 09:46:00 AM 37.0385 79.8649 North  Level Estimated

Login

Don't have an account? Register now (free) for customized features, flight alerts, and more!